Time;durP1;ratioP1;P1;durP2;ratioP2;P2;SDS_P1;SDS_P2;PMS_P1;PMS_P2;Temp;Humidity;BMP_temperature;BMP_pressure;BME280_temperature;BME280_humidity;BME280_pressure;Samples;Min_cycle;Max_cycle;Signal;HPM_P1;HPM_P2
2022/05/09 00:01:50;;;;;;;;;;;7.30;99.90;;;;;;4972757;28;19929;-71
2022/05/09 00:04:16;;;;;;;;;;;7.30;99.90;;;;;;4972002;28;19929;-72
2022/05/09 00:06:42;;;;;;;;;;;7.30;99.90;;;;;;4955919;28;20397;-71
2022/05/09 00:09:08;;;;;;;;;;;7.20;99.90;;;;;;4976193;28;19932;-72
2022/05/09 00:11:33;;;;;;;;;;;7.20;99.90;;;;;;4975672;28;19926;-72
2022/05/09 00:14:00;;;;;;;;;;;7.20;99.90;;;;;;4956562;28;19984;-72
2022/05/09 00:16:27;;;;;;;;;;;7.20;99.90;;;;;;4976358;28;19932;-72
2022/05/09 00:18:52;;;;;;;;;;;7.20;99.90;;;;;;4974141;28;19925;-72
2022/05/09 00:21:18;;;;;;;;;;;7.10;99.90;;;;;;4981531;28;20325;-72
2022/05/09 00:23:44;;;;;;;;;;;7.10;99.90;;;;;;4976999;28;19925;-72
2022/05/09 00:26:09;;;;;;;;;;;7.00;99.90;;;;;;4961947;28;19929;-71
2022/05/09 00:28:35;;;;;;;;;;;7.10;99.90;;;;;;4983891;28;19961;-71
2022/05/09 00:31:01;;;;;;;;;;;7.00;99.90;;;;;;4984416;28;19955;-71
2022/05/09 00:33:26;;;;;;;;;;;6.90;99.90;;;;;;4984350;28;19964;-71
2022/05/09 00:35:52;;;;;;;;;;;6.90;99.90;;;;;;4983079;28;19929;-71
2022/05/09 00:38:18;;;;;;;;;;;6.90;99.90;;;;;;4970458;28;19971;-73
2022/05/09 00:41:28;;;;;;;;;;;6.90;99.90;;;;;;4984141;28;20295;-73
2022/05/09 00:43:31;;;;;;;;;;;6.90;99.90;;;;;;4985246;28;19932;-72
2022/05/09 00:45:56;;;;;;;;;;;6.90;99.90;;;;;;4986868;28;20434;-73
2022/05/09 00:48:22;;;;;;;;;;;6.90;99.90;;;;;;4985961;28;20386;-72
2022/05/09 00:50:48;;;;;;;;;;;6.80;99.90;;;;;;4967634;28;19925;-72
2022/05/09 00:53:13;;;;;;;;;;;6.80;99.90;;;;;;4988170;28;19925;-72
2022/05/09 00:55:51;;;;;;;;;;;6.60;99.90;;;;;;4968622;28;19925;-72
2022/05/09 00:58:35;;;;;;;;;;;6.50;99.90;;;;;;4982605;28;19925;-72
2022/05/09 01:01:01;;;;;;;;;;;6.60;99.90;;;;;;4983831;28;19932;-73
2022/05/09 01:03:32;;;;;;;;;;;6.60;99.90;;;;;;4984218;28;19925;-72
2022/05/09 01:05:58;;;;;;;;;;;6.50;99.90;;;;;;4972100;28;19925;-72
2022/05/09 01:08:24;;;;;;;;;;;6.60;99.90;;;;;;4988937;28;19921;-72
2022/05/09 01:10:50;;;;;;;;;;;6.60;99.90;;;;;;4968560;28;19929;-72
2022/05/09 01:13:18;;;;;;;;;;;6.40;99.90;;;;;;4983839;28;20382;-72
2022/05/09 01:15:46;;;;;;;;;;;6.60;99.90;;;;;;4985996;28;20487;-72
2022/05/09 01:18:12;;;;;;;;;;;6.70;99.90;;;;;;4970883;28;19937;-72
2022/05/09 01:20:38;;;;;;;;;;;6.60;99.90;;;;;;4986444;28;20056;-73
2022/05/09 01:23:05;;;;;;;;;;;6.60;99.90;;;;;;4989796;28;19929;-72
2022/05/09 01:25:32;;;;;;;;;;;6.50;99.90;;;;;;4971771;28;19921;-72
2022/05/09 01:27:59;;;;;;;;;;;6.50;99.90;;;;;;4961061;28;19926;-72
2022/05/09 01:30:31;;;;;;;;;;;6.50;99.90;;;;;;4967247;28;20516;-73
2022/05/09 01:32:57;;;;;;;;;;;6.40;99.90;;;;;;4947361;28;20451;-72
2022/05/09 01:35:38;;;;;;;;;;;6.30;99.90;;;;;;4966269;28;19965;-72
2022/05/09 01:38:30;;;;;;;;;;;6.30;99.90;;;;;;4951777;28;19925;-73
2022/05/09 01:40:55;;;;;;;;;;;6.30;99.90;;;;;;4967025;28;19936;-72
2022/05/09 01:43:33;;;;;;;;;;;6.20;99.90;;;;;;4967466;28;19929;-72
2022/05/09 01:46:00;;;;;;;;;;;6.20;99.90;;;;;;4957567;28;21815;-72
2022/05/09 01:51:10;;;;;;;;;;;6.10;99.90;;;;;;4953156;28;20375;-73
2022/05/09 01:53:36;;;;;;;;;;;6.10;99.90;;;;;;4967687;28;19981;-73
2022/05/09 01:56:01;;;;;;;;;;;6.20;99.90;;;;;;4949471;28;20032;-72
2022/05/09 01:58:27;;;;;;;;;;;6.20;99.90;;;;;;4972576;28;19972;-73
2022/05/09 02:00:52;;;;;;;;;;;6.10;99.90;;;;;;4950872;28;19925;-72
2022/05/09 02:03:19;;;;;;;;;;;6.20;99.90;;;;;;4968698;28;20528;-72
2022/05/09 02:05:45;;;;;;;;;;;6.30;99.90;;;;;;4949544;28;20397;-73
2022/05/09 02:08:11;;;;;;;;;;;6.20;99.90;;;;;;4967196;28;19936;-72
2022/05/09 02:10:37;;;;;;;;;;;6.00;99.90;;;;;;4967428;28;19925;-72
2022/05/09 02:13:02;;;;;;;;;;;6.20;99.90;;;;;;4951452;28;19975;-72
2022/05/09 02:15:31;;;;;;;;;;;6.20;99.90;;;;;;4949323;28;20342;-72
2022/05/09 02:17:57;;;;;;;;;;;6.30;99.90;;;;;;4967906;28;20466;-72
2022/05/09 02:20:24;;;;;;;;;;;6.20;99.90;;;;;;4968003;28;19929;-72
2022/05/09 02:22:49;;;;;;;;;;;6.10;99.90;;;;;;4968975;28;19957;-72
2022/05/09 02:25:29;;;;;;;;;;;6.10;99.90;;;;;;4966407;28;20125;-72
2022/05/09 02:27:59;;;;;;;;;;;6.10;99.90;;;;;;4949181;28;19933;-72
2022/05/09 02:30:24;;;;;;;;;;;6.00;99.90;;;;;;4974704;28;19925;-72
2022/05/09 02:32:50;;;;;;;;;;;6.00;99.90;;;;;;4958070;28;19948;-72
2022/05/09 02:35:18;;;;;;;;;;;6.10;99.90;;;;;;4956670;28;20111;-72
2022/05/09 02:37:44;;;;;;;;;;;6.10;99.90;;;;;;4968324;28;19932;-72
2022/05/09 02:40:09;;;;;;;;;;;6.30;99.90;;;;;;4973809;28;19924;-72
2022/05/09 02:42:35;;;;;;;;;;;6.20;99.90;;;;;;4958214;28;19972;-72
2022/05/09 02:45:02;;;;;;;;;;;6.30;99.90;;;;;;4972243;28;20024;-72
2022/05/09 02:47:28;;;;;;;;;;;6.20;99.90;;;;;;4972744;28;19987;-73
2022/05/09 02:49:54;;;;;;;;;;;6.10;99.90;;;;;;4975216;28;20406;-72
2022/05/09 02:52:19;;;;;;;;;;;6.00;99.90;;;;;;4973751;28;19932;-72
2022/05/09 02:54:45;;;;;;;;;;;6.00;99.90;;;;;;4978895;28;19932;-72
2022/05/09 02:57:11;;;;;;;;;;;5.90;99.90;;;;;;4974308;28;19925;-72
2022/05/09 02:59:37;;;;;;;;;;;5.90;99.90;;;;;;4956455;28;20287;-72
2022/05/09 03:02:02;;;;;;;;;;;5.80;99.90;;;;;;4973010;28;19925;-73
2022/05/09 03:04:41;;;;;;;;;;;5.80;99.90;;;;;;4974985;28;20006;-73
2022/05/09 03:07:07;;;;;;;;;;;5.80;99.90;;;;;;4976494;28;20721;-73
2022/05/09 03:09:33;;;;;;;;;;;5.70;99.90;;;;;;4980494;28;20040;-72
2022/05/09 03:11:58;;;;;;;;;;;5.60;99.90;;;;;;4970252;28;19925;-72
2022/05/09 03:14:24;;;;;;;;;;;5.60;99.90;;;;;;4990743;28;19925;-72
2022/05/09 03:16:50;;;;;;;;;;;5.60;99.90;;;;;;4973372;28;20389;-72
2022/05/09 03:19:15;;;;;;;;;;;5.60;99.90;;;;;;4990164;28;19975;-72
2022/05/09 03:21:41;;;;;;;;;;;5.60;99.90;;;;;;4972179;28;19929;-72
2022/05/09 03:24:07;;;;;;;;;;;5.60;99.90;;;;;;4979110;28;19932;-72
2022/05/09 03:26:33;;;;;;;;;;;5.70;99.90;;;;;;4992117;28;20016;-72
2022/05/09 03:28:59;;;;;;;;;;;5.60;99.90;;;;;;4988267;28;19921;-72
2022/05/09 03:31:25;;;;;;;;;;;5.50;99.90;;;;;;4989978;28;19924;-72
2022/05/09 03:33:51;;;;;;;;;;;5.50;99.90;;;;;;4987744;28;20305;-72
2022/05/09 03:36:17;;;;;;;;;;;5.50;99.90;;;;;;4967953;28;19925;-72
2022/05/09 03:38:42;;;;;;;;;;;5.60;99.90;;;;;;4985840;28;19936;-72
2022/05/09 03:41:08;;;;;;;;;;;5.60;99.90;;;;;;4987902;28;20185;-72
2022/05/09 03:43:34;;;;;;;;;;;5.60;99.90;;;;;;4987855;28;19931;-72
2022/05/09 03:46:00;;;;;;;;;;;5.50;99.90;;;;;;4973230;28;19932;-73
2022/05/09 03:48:26;;;;;;;;;;;5.50;99.90;;;;;;4988582;28;19925;-72
2022/05/09 03:50:52;;;;;;;;;;;5.50;99.90;;;;;;4989746;28;20405;-72
2022/05/09 03:53:18;;;;;;;;;;;5.50;99.90;;;;;;4987586;28;20440;-72
2022/05/09 03:55:43;;;;;;;;;;;5.60;99.90;;;;;;4995357;28;20049;-72
2022/05/09 03:58:09;;;;;;;;;;;5.60;99.90;;;;;;4976524;28;20016;-72
2022/05/09 04:00:35;;;;;;;;;;;5.50;99.90;;;;;;4988380;28;20349;-72
2022/05/09 04:03:02;;;;;;;;;;;5.60;99.90;;;;;;4986286;28;20393;-73
2022/05/09 04:05:31;;;;;;;;;;;5.40;99.90;;;;;;4991422;28;20417;-72
2022/05/09 04:07:57;;;;;;;;;;;5.30;99.90;;;;;;4988220;28;19925;-72
2022/05/09 04:10:25;;;;;;;;;;;5.40;99.90;;;;;;4989062;28;20060;-72
2022/05/09 04:12:51;;;;;;;;;;;5.40;99.90;;;;;;4988803;28;19925;-72
2022/05/09 04:18:01;;;;;;;;;;;5.50;99.90;;;;;;4991843;28;20426;-72
2022/05/09 04:20:29;;;;;;;;;;;5.50;99.90;;;;;;4972857;28;19978;-72
2022/05/09 04:22:59;;;;;;;;;;;5.50;99.90;;;;;;4986556;28;19922;-72
2022/05/09 04:25:25;;;;;;;;;;;5.60;99.90;;;;;;4989270;28;19926;-72
2022/05/09 04:27:51;;;;;;;;;;;5.60;99.90;;;;;;4989788;28;19925;-72
2022/05/09 04:30:17;;;;;;;;;;;5.60;99.90;;;;;;4987021;28;19925;-72
2022/05/09 04:32:43;;;;;;;;;;;5.70;99.90;;;;;;4971343;28;19926;-72
2022/05/09 04:35:13;;;;;;;;;;;5.70;99.90;;;;;;4985393;28;19926;-72
2022/05/09 04:37:42;;;;;;;;;;;5.70;99.90;;;;;;4985774;28;19932;-72
2022/05/09 04:40:08;;;;;;;;;;;5.90;99.90;;;;;;4968776;28;20036;-73
2022/05/09 04:42:42;;;;;;;;;;;5.80;99.90;;;;;;4990842;28;19921;-72
2022/05/09 04:45:08;;;;;;;;;;;5.80;99.90;;;;;;4985610;28;19925;-72
2022/05/09 04:47:34;;;;;;;;;;;5.90;99.90;;;;;;4986662;28;19988;-73
2022/05/09 04:50:00;;;;;;;;;;;6.20;99.90;;;;;;4971119;28;20385;-72
2022/05/09 04:52:26;;;;;;;;;;;6.40;99.90;;;;;;4984443;28;20371;-72
2022/05/09 04:54:52;;;;;;;;;;;6.90;99.90;;;;;;4988828;28;20072;-72
2022/05/09 04:57:18;;;;;;;;;;;7.10;99.90;;;;;;4985300;28;20405;-72
2022/05/09 04:59:44;;;;;;;;;;;7.20;99.90;;;;;;4967198;28;20600;-73
2022/05/09 05:02:09;;;;;;;;;;;7.70;99.90;;;;;;4958021;28;19933;-72
2022/05/09 05:04:35;;;;;;;;;;;8.80;99.90;;;;;;4959742;28;20107;-72
2022/05/09 05:07:00;;;;;;;;;;;9.40;99.90;;;;;;4975040;28;19921;-73
2022/05/09 05:09:28;;;;;;;;;;;10.10;99.90;;;;;;4960292;28;19925;-73
2022/05/09 05:11:53;;;;;;;;;;;9.70;99.90;;;;;;4978011;28;20449;-73
2022/05/09 05:14:19;;;;;;;;;;;11.30;99.90;;;;;;4982791;28;19933;-73
2022/05/09 05:17:00;;;;;;;;;;;10.60;99.90;;;;;;4959182;28;19925;-73
2022/05/09 05:19:31;;;;;;;;;;;10.90;99.90;;;;;;4979188;28;19960;-73
2022/05/09 05:21:57;;;;;;;;;;;11.50;99.90;;;;;;4958082;28;20007;-73
2022/05/09 05:24:23;;;;;;;;;;;11.50;99.90;;;;;;4980521;28;20019;-73
2022/05/09 05:26:48;;;;;;;;;;;11.70;99.90;;;;;;4977076;28;20702;-73
2022/05/09 05:29:15;;;;;;;;;;;11.40;99.90;;;;;;4978020;28;19932;-73
2022/05/09 05:31:40;;;;;;;;;;;12.20;99.90;;;;;;4977306;28;20043;-73
2022/05/09 05:34:06;;;;;;;;;;;12.30;99.90;;;;;;4980168;28;19929;-73
2022/05/09 05:36:32;;;;;;;;;;;12.50;99.90;;;;;;4972347;28;20310;-73
2022/05/09 05:38:57;;;;;;;;;;;12.60;99.90;;;;;;4975165;28;19932;-73
2022/05/09 05:41:23;;;;;;;;;;;12.80;99.90;;;;;;4975965;28;20144;-73
2022/05/09 05:43:48;;;;;;;;;;;13.20;99.90;;;;;;4969285;28;19926;-73
2022/05/09 05:46:14;;;;;;;;;;;11.30;99.90;;;;;;4976828;28;19983;-73
2022/05/09 05:48:40;;;;;;;;;;;11.30;99.90;;;;;;4972677;28;19972;-73
2022/05/09 05:51:06;;;;;;;;;;;11.00;99.90;;;;;;4972298;28;19924;-73
2022/05/09 05:53:34;;;;;;;;;;;10.60;99.90;;;;;;4976280;28;19936;-73
2022/05/09 05:55:59;;;;;;;;;;;11.20;99.90;;;;;;4973795;28;19940;-73
2022/05/09 05:58:27;;;;;;;;;;;12.60;99.90;;;;;;4978225;28;20349;-73
2022/05/09 06:00:52;;;;;;;;;;;13.10;99.90;;;;;;4979766;28;20340;-73
2022/05/09 06:03:20;;;;;;;;;;;11.90;99.90;;;;;;4988665;28;19929;-73
2022/05/09 06:05:46;;;;;;;;;;;12.00;99.90;;;;;;4968366;28;19928;-74
2022/05/09 06:08:12;;;;;;;;;;;12.70;99.90;;;;;;4983353;28;20012;-73
2022/05/09 06:10:37;;;;;;;;;;;13.00;99.90;;;;;;4986156;28;19926;-74
2022/05/09 06:13:04;;;;;;;;;;;14.00;99.90;;;;;;4984295;28;19944;-73
2022/05/09 06:15:32;;;;;;;;;;;12.10;99.90;;;;;;4984059;28;19925;-73
2022/05/09 06:18:01;;;;;;;;;;;11.80;99.90;;;;;;4969601;28;19925;-73
2022/05/09 06:20:28;;;;;;;;;;;12.90;99.90;;;;;;4968575;28;19968;-73
2022/05/09 06:22:54;;;;;;;;;;;14.10;99.90;;;;;;4991940;28;20914;-73
2022/05/09 06:25:20;;;;;;;;;;;12.40;99.90;;;;;;4985692;28;19965;-73
2022/05/09 06:27:46;;;;;;;;;;;13.30;99.90;;;;;;4987321;28;20034;-74
2022/05/09 06:30:13;;;;;;;;;;;13.00;99.90;;;;;;4990016;28;20004;-73
2022/05/09 06:32:39;;;;;;;;;;;12.40;99.90;;;;;;4992654;28;20670;-73
2022/05/09 06:35:06;;;;;;;;;;;12.60;99.90;;;;;;4989533;28;19928;-74
2022/05/09 06:37:33;;;;;;;;;;;13.10;99.90;;;;;;4974797;28;20008;-73
2022/05/09 06:39:59;;;;;;;;;;;12.50;99.90;;;;;;4987528;28;19932;-73
2022/05/09 06:42:25;;;;;;;;;;;13.00;99.90;;;;;;4990686;28;20302;-73
2022/05/09 06:44:51;;;;;;;;;;;12.90;99.90;;;;;;4990906;28;19931;-73
2022/05/09 06:47:17;;;;;;;;;;;12.60;99.90;;;;;;4975722;28;19932;-73
2022/05/09 06:49:42;;;;;;;;;;;14.10;99.90;;;;;;4971818;28;20402;-73
2022/05/09 06:52:08;;;;;;;;;;;13.60;99.90;;;;;;4991055;28;19921;-74
2022/05/09 06:54:33;;;;;;;;;;;12.60;99.90;;;;;;4990405;28;19976;-74
2022/05/09 06:56:59;;;;;;;;;;;13.10;99.90;;;;;;4988280;28;20267;-74
2022/05/09 06:59:25;;;;;;;;;;;12.50;99.90;;;;;;4992052;28;19965;-73
2022/05/09 07:01:50;;;;;;;;;;;13.10;99.90;;;;;;4990386;28;19977;-74
2022/05/09 07:04:17;;;;;;;;;;;14.40;99.90;;;;;;4969516;28;19935;-74
2022/05/09 07:06:42;;;;;;;;;;;13.30;99.90;;;;;;4986453;28;19968;-74
2022/05/09 07:09:10;;;;;;;;;;;13.30;99.90;;;;;;4989897;28;20489;-73
2022/05/09 07:11:36;;;;;;;;;;;14.90;99.90;;;;;;4995896;28;19925;-74
2022/05/09 07:14:02;;;;;;;;;;;14.80;99.90;;;;;;4995369;28;19925;-74
2022/05/09 07:16:27;;;;;;;;;;;16.00;99.90;;;;;;4992366;28;20474;-74
2022/05/09 07:18:53;;;;;;;;;;;15.70;99.90;;;;;;4992564;28;20076;-73
2022/05/09 07:21:19;;;;;;;;;;;15.20;99.90;;;;;;4992642;28;20305;-73
2022/05/09 07:23:44;;;;;;;;;;;14.50;99.90;;;;;;4994305;28;19926;-74
2022/05/09 07:26:16;;;;;;;;;;;14.50;99.90;;;;;;4973854;28;19931;-74
2022/05/09 07:28:42;;;;;;;;;;;15.80;99.90;;;;;;4976488;28;19939;-74
2022/05/09 07:31:09;;;;;;;;;;;15.90;99.90;;;;;;4988069;28;20946;-74
2022/05/09 07:33:36;;;;;;;;;;;15.30;99.90;;;;;;4987494;28;20072;-73
2022/05/09 07:36:02;;;;;;;;;;;16.20;99.90;;;;;;4990127;28;20297;-74
2022/05/09 07:38:28;;;;;;;;;;;16.60;99.90;;;;;;4972612;28;21007;-73
2022/05/09 07:40:54;;;;;;;;;;;17.10;99.90;;;;;;4972711;28;19929;-74
2022/05/09 07:43:23;;;;;;;;;;;16.90;99.90;;;;;;4987791;28;20035;-74
2022/05/09 07:45:50;;;;;;;;;;;16.10;99.90;;;;;;4973433;28;20020;-74
2022/05/09 07:48:16;;;;;;;;;;;17.00;99.90;;;;;;4986147;28;20032;-74
2022/05/09 07:50:42;;;;;;;;;;;16.50;99.90;;;;;;4986012;28;19955;-74
2022/05/09 07:53:09;;;;;;;;;;;15.80;99.90;;;;;;4971018;28;20402;-73
2022/05/09 07:55:34;;;;;;;;;;;16.40;99.90;;;;;;4986704;28;20353;-73
2022/05/09 07:58:00;;;;;;;;;;;16.60;99.90;;;;;;4988017;28;20028;-73
2022/05/09 08:00:26;;;;;;;;;;;16.10;99.90;;;;;;4975587;28;19932;-73
2022/05/09 08:02:51;;;;;;;;;;;17.50;99.90;;;;;;4986150;28;19925;-73
2022/05/09 08:05:17;;;;;;;;;;;18.20;99.90;;;;;;4981219;28;20223;-73
2022/05/09 08:07:43;;;;;;;;;;;17.00;96.10;;;;;;4985263;28;19975;-73
2022/05/09 08:10:24;;;;;;;;;;;16.70;99.90;;;;;;4972254;28;19959;-73
2022/05/09 08:12:50;;;;;;;;;;;16.60;98.40;;;;;;4985805;28;19929;-74
2022/05/09 08:15:16;;;;;;;;;;;16.80;99.90;;;;;;4988216;28;19929;-73
2022/05/09 08:17:45;;;;;;;;;;;17.70;99.90;;;;;;4987319;28;20000;-74
2022/05/09 08:20:12;;;;;;;;;;;17.90;99.80;;;;;;4972229;28;19921;-74
2022/05/09 08:22:37;;;;;;;;;;;17.00;99.90;;;;;;4993691;28;19996;-73
2022/05/09 08:25:04;;;;;;;;;;;17.90;99.90;;;;;;4985620;28;19967;-74
2022/05/09 08:27:30;;;;;;;;;;;17.30;86.80;;;;;;4970914;28;19931;-74
2022/05/09 08:29:56;;;;;;;;;;;17.50;92.00;;;;;;4988181;28;20028;-74
2022/05/09 08:32:23;;;;;;;;;;;18.00;97.00;;;;;;4987801;28;19929;-74
2022/05/09 08:34:51;;;;;;;;;;;18.00;91.20;;;;;;4988199;28;19929;-74
2022/05/09 08:37:19;;;;;;;;;;;18.60;86.30;;;;;;4988202;28;19932;-74
2022/05/09 08:39:45;;;;;;;;;;;19.10;91.70;;;;;;4988678;28;20124;-74
2022/05/09 08:42:14;;;;;;;;;;;19.50;93.80;;;;;;4954792;28;20395;-73
2022/05/09 08:44:53;;;;;;;;;;;19.50;74.10;;;;;;4975473;28;19944;-74
2022/05/09 08:47:29;;;;;;;;;;;20.00;74.20;;;;;;4986424;28;20008;-73
2022/05/09 08:50:10;;;;;;;;;;;19.80;92.20;;;;;;4984909;28;19926;-73
2022/05/09 08:52:36;;;;;;;;;;;19.20;71.90;;;;;;4984902;28;19983;-73
2022/05/09 08:55:02;;;;;;;;;;;20.00;80.60;;;;;;4989056;28;20290;-73
2022/05/09 08:57:45;;;;;;;;;;;20.90;94.40;;;;;;4987931;28;19929;-73
2022/05/09 09:00:13;;;;;;;;;;;21.30;84.50;;;;;;4974846;28;19929;-73
2022/05/09 09:02:42;;;;;;;;;;;21.60;79.50;;;;;;4987869;28;20433;-73
2022/05/09 09:05:11;;;;;;;;;;;21.00;68.10;;;;;;4989470;28;20445;-73
2022/05/09 09:07:37;;;;;;;;;;;21.50;76.70;;;;;;4986893;28;19961;-73
2022/05/09 09:10:14;;;;;;;;;;;21.80;71.80;;;;;;4987574;28;20024;-73
2022/05/09 09:12:53;;;;;;;;;;;22.30;70.40;;;;;;4984976;28;20016;-73
2022/05/09 09:15:29;;;;;;;;;;;22.40;68.10;;;;;;4968166;28;20673;-73
2022/05/09 09:18:18;;;;;;;;;;;22.00;66.40;;;;;;4973634;28;20036;-73
2022/05/09 09:20:55;;;;;;;;;;;21.60;63.70;;;;;;4984155;28;19930;-73
2022/05/09 09:23:30;;;;;;;;;;;21.90;59.20;;;;;;4989942;28;19929;-73
2022/05/09 09:26:02;;;;;;;;;;;22.00;62.00;;;;;;4985256;28;19972;-73
2022/05/09 09:28:30;;;;;;;;;;;22.40;67.00;;;;;;4984858;28;20360;-73
2022/05/09 09:30:57;;;;;;;;;;;21.50;55.60;;;;;;4985861;28;19926;-73
2022/05/09 09:33:23;;;;;;;;;;;22.20;65.20;;;;;;4990105;28;20581;-74
2022/05/09 09:36:06;;;;;;;;;;;20.40;53.10;;;;;;4980328;28;19937;-73
2022/05/09 09:39:10;;;;;;;;;;;21.00;61.30;;;;;;4976659;28;19975;-73
2022/05/09 09:41:36;;;;;;;;;;;21.60;55.80;;;;;;4975591;28;19925;-73
2022/05/09 09:44:34;;;;;;;;;;;22.50;65.30;;;;;;4986449;28;19929;-73
2022/05/09 09:47:02;;;;;;;;;;;22.90;59.50;;;;;;4967889;28;19929;-74
2022/05/09 09:49:28;;;;;;;;;;;21.20;53.00;;;;;;4967699;28;19929;-73
2022/05/09 09:51:54;;;;;;;;;;;22.00;64.10;;;;;;4993255;28;19936;-74
2022/05/09 09:54:21;;;;;;;;;;;23.00;62.40;;;;;;4987396;28;19925;-74
2022/05/09 09:56:47;;;;;;;;;;;23.30;63.30;;;;;;4987316;28;20016;-73
2022/05/09 09:59:15;;;;;;;;;;;23.50;63.30;;;;;;4995507;28;19933;-73
2022/05/09 10:01:41;;;;;;;;;;;23.40;58.80;;;;;;4994596;28;19929;-74
2022/05/09 10:04:11;;;;;;;;;;;23.70;62.00;;;;;;4978011;28;19925;-73
2022/05/09 10:06:56;;;;;;;;;;;24.20;62.70;;;;;;4990136;28;20882;-73
2022/05/09 10:09:22;;;;;;;;;;;23.90;60.40;;;;;;4974194;28;19931;-73
2022/05/09 10:11:47;;;;;;;;;;;24.10;56.10;;;;;;4991184;28;20310;-73
2022/05/09 10:14:30;;;;;;;;;;;24.00;56.30;;;;;;4977769;28;20033;-73
2022/05/09 10:17:11;;;;;;;;;;;23.90;58.90;;;;;;4994158;28;20808;-73
2022/05/09 10:19:37;;;;;;;;;;;23.30;52.50;;;;;;4995228;28;20004;-73
2022/05/09 10:24:57;;;;;;;;;;;24.10;59.60;;;;;;4990750;28;20416;-73
2022/05/09 10:27:23;;;;;;;;;;;23.50;60.80;;;;;;4976224;28;19929;-73
2022/05/09 10:29:55;;;;;;;;;;;23.80;60.60;;;;;;4973294;28;19925;-73
2022/05/09 10:32:40;;;;;;;;;;;24.30;56.80;;;;;;4993688;28;19925;-75
2022/05/09 10:35:10;;;;;;;;;;;23.40;55.00;;;;;;4978192;28;19925;-73
2022/05/09 10:37:57;;;;;;;;;;;24.50;59.50;;;;;;4992365;28;19925;-74
2022/05/09 10:40:30;;;;;;;;;;;23.90;56.70;;;;;;4975454;28;19929;-74
2022/05/09 10:43:05;;;;;;;;;;;22.00;58.60;;;;;;4993006;28;19972;-73
2022/05/09 10:45:34;;;;;;;;;;;22.10;58.70;;;;;;4993596;28;20015;-73
2022/05/09 10:48:09;;;;;;;;;;;23.40;61.80;;;;;;4990927;28;19991;-73
2022/05/09 10:50:49;;;;;;;;;;;23.90;58.80;;;;;;4992778;28;20673;-73
2022/05/09 10:53:34;;;;;;;;;;;23.80;61.00;;;;;;4978748;28;20134;-73
2022/05/09 10:56:03;;;;;;;;;;;24.10;60.30;;;;;;4987433;28;19933;-74
2022/05/09 10:58:30;;;;;;;;;;;24.50;51.80;;;;;;4992215;28;20011;-74
2022/05/09 11:01:00;;;;;;;;;;;23.50;59.70;;;;;;4974184;28;20421;-74
2022/05/09 11:03:34;;;;;;;;;;;24.20;61.20;;;;;;4992930;28;20011;-73
2022/05/09 11:06:18;;;;;;;;;;;24.80;60.50;;;;;;4989881;28;20531;-73
2022/05/09 11:09:02;;;;;;;;;;;24.70;54.30;;;;;;4988682;28;19932;-74
2022/05/09 11:11:33;;;;;;;;;;;24.90;60.40;;;;;;4974179;28;20493;-74
2022/05/09 11:14:08;;;;;;;;;;;24.90;60.00;;;;;;4989947;28;19937;-74
2022/05/09 11:16:48;;;;;;;;;;;24.10;60.10;;;;;;4988213;28;20858;-74
2022/05/09 11:19:20;;;;;;;;;;;24.50;59.50;;;;;;4992332;28;19933;-74
2022/05/09 11:22:15;;;;;;;;;;;24.90;61.30;;;;;;4987412;28;20287;-75
2022/05/09 11:24:51;;;;;;;;;;;24.20;59.60;;;;;;4977885;28;20500;-74
2022/05/09 11:27:32;;;;;;;;;;;24.90;57.20;;;;;;4988906;28;19928;-74
2022/05/09 11:30:17;;;;;;;;;;;24.90;58.50;;;;;;4974850;28;19933;-74
2022/05/09 11:32:43;;;;;;;;;;;25.20;60.60;;;;;;4952002;28;20190;-74
2022/05/09 11:35:16;;;;;;;;;;;25.40;58.30;;;;;;4954631;28;19934;-74
2022/05/09 11:37:53;;;;;;;;;;;25.80;60.80;;;;;;4968093;28;19926;-75
2022/05/09 11:40:30;;;;;;;;;;;25.40;58.80;;;;;;4974560;28;19943;-75
2022/05/09 11:45:42;;;;;;;;;;;25.40;58.50;;;;;;4970008;28;19933;-74
2022/05/09 11:48:31;;;;;;;;;;;25.70;53.10;;;;;;4971023;28;20015;-74
2022/05/09 11:51:09;;;;;;;;;;;25.60;59.50;;;;;;4960144;28;20495;-74
2022/05/09 11:53:37;;;;;;;;;;;25.50;59.10;;;;;;4956570;28;20004;-73
2022/05/09 11:56:05;;;;;;;;;;;25.60;58.70;;;;;;4950978;28;19937;-75
2022/05/09 11:58:33;;;;;;;;;;;25.00;57.40;;;;;;4972128;28;19933;-74
2022/05/09 12:00:59;;;;;;;;;;;24.00;58.20;;;;;;4973218;28;19925;-74
2022/05/09 12:03:36;;;;;;;;;;;24.90;61.60;;;;;;4970168;28;19926;-74
2022/05/09 12:06:03;;;;;;;;;;;23.30;54.90;;;;;;4973310;28;19937;-74
2022/05/09 12:08:49;;;;;;;;;;;24.60;60.90;;;;;;4947554;28;19991;-73
2022/05/09 12:11:24;;;;;;;;;;;25.10;58.60;;;;;;4964033;28;19926;-73
2022/05/09 12:13:51;;;;;;;;;;;25.60;57.70;;;;;;4969981;28;20016;-73
2022/05/09 12:16:49;;;;;;;;;;;25.90;59.20;;;;;;4971528;28;19926;-74
2022/05/09 12:19:20;;;;;;;;;;;26.10;60.10;;;;;;4945847;28;20354;-73
2022/05/09 12:22:06;;;;;;;;;;;26.30;59.50;;;;;;4968606;28;19929;-74
2022/05/09 12:24:32;;;;;;;;;;;26.30;57.80;;;;;;4970712;28;19927;-74
2022/05/09 12:27:01;;;;;;;;;;;26.40;57.90;;;;;;4971564;28;20375;-73
2022/05/09 12:29:30;;;;;;;;;;;25.30;54.70;;;;;;4981032;28;20015;-74
2022/05/09 12:31:58;;;;;;;;;;;24.70;59.80;;;;;;4990743;28;19925;-73
2022/05/09 12:34:36;;;;;;;;;;;25.50;58.50;;;;;;4995123;28;19930;-73
2022/05/09 12:37:02;;;;;;;;;;;25.80;57.20;;;;;;4990578;28;20371;-73
2022/05/09 12:39:33;;;;;;;;;;;26.30;58.10;;;;;;4991845;28;19932;-73
2022/05/09 12:42:00;;;;;;;;;;;26.20;57.40;;;;;;4973834;28;19929;-73
2022/05/09 12:44:27;;;;;;;;;;;26.30;56.60;;;;;;4974430;28;20584;-73
2022/05/09 12:46:58;;;;;;;;;;;26.20;55.70;;;;;;4987470;28;19936;-74
2022/05/09 12:49:40;;;;;;;;;;;26.20;55.00;;;;;;4995338;28;20860;-73
2022/05/09 12:52:07;;;;;;;;;;;26.30;53.70;;;;;;4991832;28;19929;-73
2022/05/09 12:54:35;;;;;;;;;;;26.10;54.80;;;;;;4969118;28;19926;-74
2022/05/09 12:57:03;;;;;;;;;;;26.30;55.80;;;;;;4987786;28;20438;-74
2022/05/09 12:59:44;;;;;;;;;;;26.30;55.70;;;;;;4987176;28;20445;-75
2022/05/09 13:02:20;;;;;;;;;;;26.30;54.60;;;;;;4987152;28;20306;-74
2022/05/09 13:04:47;;;;;;;;;;;26.50;53.80;;;;;;4973978;28;20386;-74
2022/05/09 13:07:13;;;;;;;;;;;26.60;56.20;;;;;;4992912;28;20702;-73
2022/05/09 13:09:52;;;;;;;;;;;26.50;56.00;;;;;;4989824;28;19971;-74
2022/05/09 13:12:22;;;;;;;;;;;26.60;55.60;;;;;;4985588;28;19929;-74
2022/05/09 13:14:51;;;;;;;;;;;26.50;53.70;;;;;;4987836;28;19947;-73
2022/05/09 13:17:29;;;;;;;;;;;26.40;55.30;;;;;;4988131;28;19936;-74
2022/05/09 13:19:55;;;;;;;;;;;26.80;52.90;;;;;;4988113;28;19983;-73
2022/05/09 13:22:41;;;;;;;;;;;26.30;53.70;;;;;;4988730;28;19925;-74
2022/05/09 13:25:08;;;;;;;;;;;26.30;50.50;;;;;;4991241;28;20809;-74
2022/05/09 13:27:34;;;;;;;;;;;25.40;47.10;;;;;;4972442;28;19965;-74
2022/05/09 13:30:04;;;;;;;;;;;26.10;54.20;;;;;;4988705;28;20012;-75
2022/05/09 13:32:52;;;;;;;;;;;26.40;55.40;;;;;;4996439;28;20457;-74
2022/05/09 13:35:24;;;;;;;;;;;26.50;55.20;;;;;;4973089;28;19948;-74
2022/05/09 13:37:53;;;;;;;;;;;27.00;52.40;;;;;;4993643;28;20462;-74
2022/05/09 13:40:20;;;;;;;;;;;27.00;54.60;;;;;;4992952;28;19987;-74
2022/05/09 13:42:47;;;;;;;;;;;27.10;53.20;;;;;;4974873;28;19921;-74
2022/05/09 13:45:13;;;;;;;;;;;27.00;53.40;;;;;;4991975;28;19951;-74
2022/05/09 13:47:40;;;;;;;;;;;27.00;51.90;;;;;;4975294;28;20375;-75
2022/05/09 13:50:07;;;;;;;;;;;26.60;50.90;;;;;;4992889;28;19925;-73
2022/05/09 13:52:37;;;;;;;;;;;26.60;51.50;;;;;;4995894;28;19929;-74
2022/05/09 13:55:04;;;;;;;;;;;25.70;52.20;;;;;;4974638;28;19972;-74
2022/05/09 13:57:49;;;;;;;;;;;26.40;53.30;;;;;;4993446;28;20441;-74
2022/05/09 14:00:19;;;;;;;;;;;26.60;52.70;;;;;;4993770;28;19932;-73
2022/05/09 14:02:46;;;;;;;;;;;26.50;54.20;;;;;;4977095;28;19972;-74
2022/05/09 14:05:13;;;;;;;;;;;26.70;52.00;;;;;;4994898;28;19929;-74
2022/05/09 14:07:42;;;;;;;;;;;26.80;52.70;;;;;;4993077;28;20406;-74
2022/05/09 14:10:08;;;;;;;;;;;27.00;48.50;;;;;;4956356;28;19928;-73
2022/05/09 14:12:34;;;;;;;;;;;26.70;50.20;;;;;;4977172;28;19929;-74
2022/05/09 14:15:05;;;;;;;;;;;26.60;52.80;;;;;;4974326;28;19977;-73
2022/05/09 14:17:34;;;;;;;;;;;26.70;53.40;;;;;;4975632;28;19948;-74
2022/05/09 14:20:01;;;;;;;;;;;26.90;52.10;;;;;;4961470;28;20646;-74
2022/05/09 14:22:28;;;;;;;;;;;26.60;52.80;;;;;;4981982;28;20053;-75
2022/05/09 14:30:33;;;;;;;;;;;26.70;53.20;;;;;;4964068;28;19936;-73
2022/05/09 14:32:59;;;;;;;;;;;26.90;52.60;;;;;;4959538;28;19936;-74
2022/05/09 14:35:44;;;;;;;;;;;26.70;50.90;;;;;;4940056;28;20323;-74
2022/05/09 14:38:24;;;;;;;;;;;26.60;50.70;;;;;;4956392;28;19933;-74
2022/05/09 14:40:50;;;;;;;;;;;26.60;52.50;;;;;;4944146;28;19930;-74
2022/05/09 14:43:29;;;;;;;;;;;26.70;51.90;;;;;;4962048;28;20040;-75
2022/05/09 14:46:03;;;;;;;;;;;26.30;50.50;;;;;;4957722;28;19988;-75
2022/05/09 14:48:33;;;;;;;;;;;26.10;51.70;;;;;;4943194;28;19925;-74
2022/05/09 14:51:01;;;;;;;;;;;26.10;50.80;;;;;;4942817;28;19932;-74